Time;durP1;ratioP1;P1;durP2;ratioP2;P2;SDS_P1;SDS_P2;PMS_P1;PMS_P2;Temp;Humidity;BMP_temperature;BMP_pressure;BME280_temperature;BME280_humidity;BME280_pressure;Samples;Min_cycle;Max_cycle;Signal;HPM_P1;HPM_P2
2022/08/22 00:00:12;;;;;;;7.20;2.53;;;18.70;99.90;;;;;;5015404;28;20428;-77
2022/08/22 00:02:52;;;;;;;4.23;2.33;;;18.70;99.90;;;;;;5015362;28;20486;-77
2022/08/22 00:05:29;;;;;;;4.10;1.90;;;18.70;99.90;;;;;;5015107;28;20916;-77
2022/08/22 00:08:07;;;;;;;4.47;2.50;;;18.60;99.90;;;;;;5015369;28;20257;-77
2022/08/22 00:10:49;;;;;;;5.53;2.23;;;18.60;99.90;;;;;;5015532;28;20465;-77
2022/08/22 00:13:23;;;;;;;2.83;2.17;;;18.50;99.90;;;;;;5014960;28;20476;-77
2022/08/22 00:15:58;;;;;;;3.28;2.42;;;18.50;99.90;;;;;;5015097;28;20913;-77
2022/08/22 00:18:31;;;;;;;4.87;2.40;;;18.50;99.90;;;;;;5015216;28;20212;-77
2022/08/22 00:21:08;;;;;;;5.30;2.40;;;18.40;99.90;;;;;;5016485;28;20426;-77
2022/08/22 00:23:40;;;;;;;4.30;2.40;;;18.40;99.90;;;;;;5015152;28;20479;-77
2022/08/22 00:26:19;;;;;;;3.27;2.30;;;18.30;99.90;;;;;;5014775;28;20984;-77
2022/08/22 00:28:51;;;;;;;5.37;2.43;;;18.30;99.90;;;;;;5014698;28;21034;-77
2022/08/22 00:31:24;;;;;;;4.03;2.20;;;18.30;99.90;;;;;;5014579;28;20977;-77
2022/08/22 00:33:59;;;;;;;2.60;2.10;;;18.30;99.90;;;;;;5014873;28;20426;-77
2022/08/22 00:36:33;;;;;;;6.40;2.50;;;18.30;99.90;;;;;;5014237;28;20928;-77
2022/08/22 00:39:13;;;;;;;4.17;2.20;;;18.20;99.90;;;;;;5014719;28;20446;-77
2022/08/22 00:42:02;;;;;;;2.70;2.37;;;18.20;99.90;;;;;;5014370;28;20476;-77
2022/08/22 00:44:57;;;;;;;8.85;2.30;;;18.10;99.90;;;;;;5014177;28;20487;-77
2022/08/22 00:47:55;;;;;;;3.45;2.35;;;18.10;99.90;;;;;;5014525;28;20207;-77
2022/08/22 00:50:44;;;;;;;5.47;2.30;;;18.10;99.90;;;;;;5013660;28;20642;-78
2022/08/22 00:53:37;;;;;;;4.37;2.20;;;18.10;99.90;;;;;;5014490;28;20487;-77
2022/08/22 00:56:31;;;;;;;2.90;2.27;;;18.00;99.90;;;;;;5014044;28;20459;-77
2022/08/22 00:59:07;;;;;;;2.40;1.97;;;18.00;99.90;;;;;;5013972;28;20426;-77
2022/08/22 01:01:37;;;;;;;6.40;2.53;;;18.00;99.90;;;;;;5014349;28;20482;-77
2022/08/22 01:04:27;;;;;;;4.47;2.17;;;18.00;99.90;;;;;;5014209;28;20454;-77
2022/08/22 01:07:10;;;;;;;5.00;2.00;;;17.90;99.90;;;;;;5013830;28;20891;-77
2022/08/22 01:09:50;;;;;;;3.60;2.20;;;17.90;99.90;;;;;;5013299;28;20485;-77
2022/08/22 01:12:39;;;;;;;3.95;2.03;;;17.90;99.90;;;;;;5014064;28;20445;-77
2022/08/22 01:15:10;;;;;;;3.50;2.00;;;17.90;99.90;;;;;;5013601;28;20676;-77
2022/08/22 01:18:13;;;;;;;2.53;1.80;;;17.90;99.90;;;;;;5013876;28;20438;-77
2022/08/22 01:21:19;;;;;;;3.22;1.77;;;17.90;99.90;;;;;;5013877;28;20462;-77
2022/08/22 01:24:28;;;;;;;4.77;2.37;;;17.90;99.90;;;;;;5013871;28;20584;-78
2022/08/22 01:27:30;;;;;;;2.73;1.90;;;17.90;99.90;;;;;;5013549;28;20451;-78
2022/08/22 01:30:31;;;;;;;5.10;2.40;;;17.90;99.90;;;;;;5013600;28;20514;-77
2022/08/22 01:33:54;;;;;;;2.50;2.30;;;17.80;99.90;;;;;;5013652;28;20500;-77
2022/08/22 01:36:51;;;;;;;6.07;2.30;;;17.80;99.90;;;;;;5010796;28;20454;-78
2022/08/22 01:39:52;;;;;;;3.40;2.40;;;17.80;99.90;;;;;;5013138;28;20454;-77
2022/08/22 01:42:48;;;;;;;3.75;2.42;;;17.80;99.90;;;;;;5013297;28;20440;-77
2022/08/22 01:45:49;;;;;;;5.30;2.67;;;17.80;99.90;;;;;;5013142;28;20742;-77
2022/08/22 01:48:21;;;;;;;4.00;2.17;;;17.70;99.90;;;;;;5013351;28;20297;-78
2022/08/22 01:50:52;;;;;;;4.90;2.20;;;17.70;99.90;;;;;;5012944;28;20492;-78
2022/08/22 01:53:24;;;;;;;5.03;2.30;;;17.70;99.90;;;;;;5013044;28;20474;-77
2022/08/22 01:55:59;;;;;;;4.10;2.53;;;17.70;99.90;;;;;;5013056;28;20451;-78
2022/08/22 01:58:29;;;;;;;2.90;2.23;;;17.70;99.90;;;;;;5013260;28;20455;-78
2022/08/22 02:01:07;;;;;;;5.10;2.37;;;17.70;99.90;;;;;;5013162;28;20447;-78
2022/08/22 02:03:42;;;;;;;2.57;2.23;;;17.70;99.90;;;;;;5012844;28;20935;-78
2022/08/22 02:06:16;;;;;;;5.50;2.40;;;17.60;99.90;;;;;;5012984;28;20525;-78
2022/08/22 02:08:53;;;;;;;5.90;2.40;;;17.60;99.90;;;;;;5013156;28;20455;-77
2022/08/22 02:11:37;;;;;;;5.27;2.60;;;17.60;99.90;;;;;;5012722;28;20512;-78
2022/08/22 02:14:13;;;;;;;3.30;2.10;;;17.60;99.90;;;;;;5012628;28;20433;-77
2022/08/22 02:16:43;;;;;;;2.30;2.10;;;17.60;99.90;;;;;;5012770;28;20481;-78
2022/08/22 02:19:28;;;;;;;3.63;2.67;;;17.50;99.90;;;;;;5012863;28;20509;-77
2022/08/22 02:21:59;;;;;;;4.47;2.50;;;17.50;99.90;;;;;;5011690;28;20525;-77
2022/08/22 02:24:45;;;;;;;5.57;2.37;;;17.50;99.90;;;;;;5012555;28;20425;-77
2022/08/22 02:27:23;;;;;;;6.23;2.37;;;17.50;99.90;;;;;;5012594;28;20484;-77
2022/08/22 02:30:01;;;;;;;2.15;1.95;;;17.50;99.90;;;;;;5012703;28;21066;-77
2022/08/22 02:32:34;;;;;;;6.23;2.50;;;17.40;99.90;;;;;;5012590;28;20232;-77
2022/08/22 02:35:06;;;;;;;5.63;2.23;;;17.40;99.90;;;;;;5012403;28;20947;-77
2022/08/22 02:37:38;;;;;;;3.23;2.47;;;17.50;99.90;;;;;;5012707;28;20847;-77
2022/08/22 02:40:13;;;;;;;4.53;2.40;;;17.40;99.90;;;;;;5012674;28;20425;-77
2022/08/22 02:42:44;;;;;;;4.07;2.27;;;17.30;99.90;;;;;;5012420;28;20508;-77
2022/08/22 02:45:29;;;;;;;3.33;2.20;;;17.30;99.90;;;;;;5012122;28;20493;-77
2022/08/22 02:48:03;;;;;;;4.87;2.20;;;17.30;99.90;;;;;;5012393;28;20255;-77
2022/08/22 02:50:38;;;;;;;2.73;2.50;;;17.30;99.90;;;;;;5012232;28;20544;-77
2022/08/22 02:53:11;;;;;;;2.80;2.17;;;17.20;99.90;;;;;;5012258;28;20979;-77
2022/08/22 02:55:50;;;;;;;9.70;2.60;;;17.20;99.90;;;;;;5011910;28;20467;-77
2022/08/22 02:58:26;;;;;;;4.93;2.40;;;17.20;99.90;;;;;;5012492;28;20459;-77
2022/08/22 03:01:24;;;;;;;2.43;2.23;;;17.20;99.90;;;;;;5012162;28;20931;-77
2022/08/22 03:04:12;;;;;;;3.20;2.27;;;17.10;99.90;;;;;;5011488;28;20491;-77
2022/08/22 03:06:43;;;;;;;3.13;2.20;;;17.10;99.90;;;;;;5011641;28;20459;-77
2022/08/22 03:09:23;;;;;;;4.00;2.27;;;17.10;99.90;;;;;;5012161;28;20486;-77
2022/08/22 03:12:04;;;;;;;3.30;2.40;;;17.00;99.90;;;;;;5011958;28;20470;-77
2022/08/22 03:14:35;;;;;;;2.80;2.40;;;17.00;99.90;;;;;;5011746;28;20455;-77
2022/08/22 03:17:06;;;;;;;3.90;2.27;;;16.90;99.90;;;;;;5011929;28;20451;-77
2022/08/22 03:19:48;;;;;;;2.80;2.50;;;16.90;99.90;;;;;;5012359;28;20457;-77
2022/08/22 03:22:19;;;;;;;3.03;2.33;;;16.80;99.90;;;;;;5012003;28;20605;-77
2022/08/22 03:24:52;;;;;;;2.83;2.30;;;16.80;99.90;;;;;;5011866;28;20991;-77
2022/08/22 03:27:27;;;;;;;3.17;2.37;;;16.70;99.90;;;;;;5012050;28;20944;-77
2022/08/22 03:29:59;;;;;;;5.97;2.33;;;16.70;99.90;;;;;;5012003;28;20486;-77
2022/08/22 03:32:47;;;;;;;4.93;2.57;;;16.60;99.90;;;;;;5013040;28;20470;-77
2022/08/22 03:35:34;;;;;;;4.00;2.50;;;16.50;99.90;;;;;;5015580;28;20446;-77
2022/08/22 03:38:15;;;;;;;3.42;2.60;;;16.50;99.90;;;;;;5015872;28;20453;-77
2022/08/22 03:40:53;;;;;;;6.33;2.80;;;16.40;99.90;;;;;;5015762;28;20262;-77
2022/08/22 03:43:36;;;;;;;8.53;2.80;;;16.30;99.90;;;;;;5015591;28;20481;-77
2022/08/22 03:46:33;;;;;;;5.03;2.30;;;16.30;99.90;;;;;;5015607;28;20833;-77
2022/08/22 03:49:12;;;;;;;3.83;2.50;;;16.30;99.90;;;;;;5015726;28;20899;-77
2022/08/22 03:51:51;;;;;;;3.40;2.47;;;16.30;99.90;;;;;;5015184;28;20597;-77
2022/08/22 03:54:52;;;;;;;4.43;2.60;;;16.30;99.90;;;;;;5015879;28;20458;-77
2022/08/22 03:57:56;;;;;;;2.90;2.70;;;16.30;99.90;;;;;;5015398;28;20504;-76
2022/08/22 04:01:00;;;;;;;3.90;2.70;;;16.20;99.90;;;;;;5015218;28;20453;-77
2022/08/22 04:03:54;;;;;;;2.90;2.43;;;16.20;99.90;;;;;;5014960;28;20473;-77
2022/08/22 04:06:57;;;;;;;3.15;2.45;;;16.30;99.90;;;;;;5015225;28;20450;-77
2022/08/22 04:09:44;;;;;;;3.20;2.50;;;16.30;99.90;;;;;;5015270;28;20257;-77
2022/08/22 04:12:39;;;;;;;4.23;2.70;;;16.30;99.90;;;;;;5015214;28;20525;-78
2022/08/22 04:15:32;;;;;;;3.10;2.70;;;16.30;99.90;;;;;;5014810;28;20903;-78
2022/08/22 04:18:28;;;;;;;4.10;2.60;;;16.30;99.90;;;;;;5015216;28;20497;-78
2022/08/22 04:21:35;;;;;;;4.03;2.77;;;16.30;99.90;;;;;;5012828;28;20462;-77
2022/08/22 04:24:27;;;;;;;2.83;2.63;;;16.30;99.90;;;;;;5012431;28;20454;-77
2022/08/22 04:26:58;;;;;;;6.90;2.90;;;16.30;99.90;;;;;;5014703;28;20425;-77
2022/08/22 04:29:30;;;;;;;2.83;2.55;;;16.30;99.90;;;;;;5014666;28;20481;-77
2022/08/22 04:32:07;;;;;;;5.47;2.47;;;16.30;99.90;;;;;;5014790;28;20297;-78
2022/08/22 04:34:38;;;;;;;3.97;2.30;;;16.30;99.90;;;;;;5014780;28;20445;-77
2022/08/22 04:37:19;;;;;;;5.23;2.80;;;16.30;99.90;;;;;;5014420;28;20455;-77
2022/08/22 04:39:52;;;;;;;2.90;2.60;;;16.30;99.90;;;;;;5014457;28;20455;-77
2022/08/22 04:42:26;;;;;;;4.03;3.00;;;16.30;99.90;;;;;;5014604;28;20492;-77
2022/08/22 04:44:59;;;;;;;2.90;2.50;;;16.30;99.90;;;;;;5013062;28;21025;-77
2022/08/22 04:47:31;;;;;;;3.57;2.40;;;16.30;99.90;;;;;;5014428;28;20501;-78
2022/08/22 04:50:04;;;;;;;6.50;3.03;;;16.30;99.90;;;;;;5014351;28;20478;-77
2022/08/22 04:52:47;;;;;;;6.13;2.60;;;16.40;99.90;;;;;;5013982;28;20458;-77
2022/08/22 04:55:30;;;;;;;4.70;2.93;;;16.40;99.90;;;;;;5014032;28;20794;-77
2022/08/22 04:58:08;;;;;;;2.87;2.63;;;16.40;99.90;;;;;;5014223;28;20438;-77
2022/08/22 05:00:40;;;;;;;3.23;2.10;;;16.40;99.90;;;;;;5014102;28;20488;-77
2022/08/22 05:03:11;;;;;;;6.27;2.70;;;16.40;99.90;;;;;;5014275;28;20466;-77
2022/08/22 05:05:41;;;;;;;3.58;3.17;;;16.40;99.90;;;;;;5014016;28;20504;-77
2022/08/22 05:08:14;;;;;;;2.90;2.70;;;16.50;99.90;;;;;;5014092;28;20211;-77
2022/08/22 05:10:45;;;;;;;6.87;3.00;;;16.50;99.90;;;;;;5014065;28;20479;-77
2022/08/22 05:13:18;;;;;;;5.55;3.25;;;16.50;99.90;;;;;;5013514;28;20476;-77
2022/08/22 05:15:49;;;;;;;3.80;2.40;;;16.60;99.90;;;;;;5013795;28;20285;-77
2022/08/22 05:18:21;;;;;;;6.03;3.13;;;16.60;99.90;;;;;;5013943;28;20802;-77
2022/08/22 05:20:50;;;;;;;5.80;3.00;;;16.60;99.90;;;;;;5013979;28;20477;-77
2022/08/22 05:23:21;;;;;;;3.07;2.80;;;16.70;99.90;;;;;;5013602;28;20654;-77
2022/08/22 05:25:51;;;;;;;4.20;2.45;;;16.70;99.90;;;;;;5013405;28;20453;-78
2022/08/22 05:28:33;;;;;;;6.10;2.70;;;17.00;99.90;;;;;;5014008;28;20224;-77
2022/08/22 05:31:03;;;;;;;4.83;2.83;;;17.20;99.90;;;;;;5013609;28;20485;-77
2022/08/22 05:33:33;;;;;;;7.50;2.97;;;17.40;99.90;;;;;;5013517;28;20455;-77
2022/08/22 05:36:05;;;;;;;4.27;3.13;;;17.70;99.90;;;;;;5013203;28;20975;-78
2022/08/22 05:38:38;;;;;;;3.53;2.22;;;18.00;99.90;;;;;;5013521;28;20425;-78
2022/08/22 05:41:08;;;;;;;5.43;2.90;;;18.30;99.90;;;;;;5013575;28;20618;-77
2022/08/22 05:43:38;;;;;;;5.43;2.80;;;18.50;99.90;;;;;;5013390;28;20480;-77
2022/08/22 05:46:08;;;;;;;6.53;2.70;;;18.70;99.90;;;;;;5013124;28;20429;-77
2022/08/22 05:48:40;;;;;;;4.70;2.78;;;18.90;99.90;;;;;;5012982;28;20433;-78
2022/08/22 05:51:17;;;;;;;6.90;2.87;;;19.00;99.90;;;;;;5012951;28;20235;-78
2022/08/22 05:53:49;;;;;;;4.40;2.90;;;19.20;99.90;;;;;;5013303;28;20431;-78
2022/08/22 05:56:22;;;;;;;4.77;2.77;;;19.40;99.90;;;;;;5012826;28;20486;-78
2022/08/22 05:58:53;;;;;;;5.40;2.90;;;19.60;99.90;;;;;;5012961;28;20454;-78
2022/08/22 06:01:27;;;;;;;6.18;3.40;;;19.80;99.90;;;;;;5012808;28;20835;-79
2022/08/22 06:04:00;;;;;;;3.87;2.80;;;20.00;99.90;;;;;;5013152;28;20205;-79
2022/08/22 06:06:30;;;;;;;4.80;2.70;;;20.30;99.90;;;;;;5012911;28;20450;-79
2022/08/22 06:09:03;;;;;;;3.67;2.83;;;20.40;99.90;;;;;;5012668;28;21009;-79
2022/08/22 06:11:39;;;;;;;3.27;2.57;;;20.70;99.90;;;;;;5012589;28;20547;-78
2022/08/22 06:14:12;;;;;;;4.53;2.80;;;20.80;99.90;;;;;;5012884;28;20424;-79
2022/08/22 06:16:46;;;;;;;4.37;3.70;;;21.00;99.90;;;;;;5012504;28;20917;-78
2022/08/22 06:19:16;;;;;;;7.07;2.87;;;21.40;99.90;;;;;;5013085;28;20432;-78
2022/08/22 06:21:46;;;;;;;13.47;2.83;;;21.40;99.90;;;;;;5012544;28;20449;-79
2022/08/22 06:24:20;;;;;;;5.57;2.60;;;21.50;99.90;;;;;;5012709;28;20409;-78
2022/08/22 06:26:50;;;;;;;4.27;2.70;;;21.70;99.90;;;;;;5012656;28;20262;-78
2022/08/22 06:29:30;;;;;;;4.55;2.40;;;21.90;99.90;;;;;;5012607;28;20813;-79
2022/08/22 06:31:58;;;;;;;3.80;2.70;;;22.10;99.90;;;;;;5012439;28;20263;-79
2022/08/22 06:34:30;;;;;;;13.27;2.77;;;22.30;99.90;;;;;;5012212;28;20989;-78
2022/08/22 06:37:01;;;;;;;6.70;2.77;;;22.50;99.90;;;;;;5012414;28;20450;-78
2022/08/22 06:39:32;;;;;;;6.63;2.92;;;22.60;99.90;;;;;;5012301;28;20954;-79
2022/08/22 06:42:02;;;;;;;3.83;2.60;;;22.70;99.90;;;;;;5012393;28;20224;-79
2022/08/22 06:44:32;;;;;;;8.53;3.00;;;22.80;99.90;;;;;;5012397;28;20541;-79
2022/08/22 06:47:01;;;;;;;8.00;2.23;;;23.10;99.90;;;;;;5011962;28;20501;-79
2022/08/22 06:49:29;;;;;;;3.00;2.30;;;23.40;99.90;;;;;;5012506;28;20858;-79
2022/08/22 06:52:01;;;;;;;2.43;2.20;;;23.60;99.90;;;;;;5012079;28;20995;-78
2022/08/22 06:54:33;;;;;;;3.87;2.50;;;23.90;99.90;;;;;;5014616;28;20447;-79
2022/08/22 06:57:03;;;;;;;10.13;2.77;;;24.20;99.90;;;;;;5012540;28;20439;-78
2022/08/22 06:59:34;;;;;;;5.33;2.67;;;24.40;99.90;;;;;;5011893;28;20505;-77
2022/08/22 07:02:05;;;;;;;2.77;2.43;;;24.70;99.90;;;;;;5012433;28;20473;-78
2022/08/22 07:04:32;;;;;;;2.90;2.60;;;24.80;99.90;;;;;;5012077;28;20471;-78
2022/08/22 07:07:01;;;;;;;3.90;2.60;;;24.60;99.90;;;;;;5011412;28;20518;-78
2022/08/22 07:09:30;;;;;;;5.10;3.23;;;24.30;99.90;;;;;;5012180;28;20454;-78
2022/08/22 07:12:02;;;;;;;4.60;2.90;;;23.90;99.90;;;;;;5012140;28;20490;-78
2022/08/22 07:14:33;;;;;;;5.60;3.23;;;23.60;99.90;;;;;;5012277;28;20514;-78
2022/08/22 07:17:02;;;;;;;5.90;2.90;;;23.10;99.90;;;;;;5011833;28;20451;-78
2022/08/22 07:19:31;;;;;;;4.95;3.00;;;23.00;99.90;;;;;;5011937;28;20992;-78
2022/08/22 07:22:02;;;;;;;4.18;3.05;;;22.90;99.90;;;;;;5012023;28;20275;-78
2022/08/22 07:24:32;;;;;;;3.87;2.80;;;22.80;99.90;;;;;;5011813;28;20212;-78
2022/08/22 07:27:11;;;;;;;6.27;3.30;;;22.80;99.90;;;;;;5012054;28;20459;-78
2022/08/22 07:29:48;;;;;;;9.13;3.10;;;22.70;99.90;;;;;;5011816;28;20935;-78
2022/08/22 07:32:19;;;;;;;7.47;3.27;;;22.70;99.90;;;;;;5011612;28;20993;-78
2022/08/22 07:35:04;;;;;;;5.97;2.90;;;22.60;99.90;;;;;;5011652;28;20815;-78
2022/08/22 07:37:45;;;;;;;8.32;3.22;;;22.80;99.90;;;;;;5012030;28;20549;-78
2022/08/22 07:40:20;;;;;;;6.90;3.47;;;23.10;99.90;;;;;;5012165;28;20370;-78
2022/08/22 07:42:52;;;;;;;5.00;3.30;;;23.70;99.90;;;;;;5011910;28;20477;-78
2022/08/22 07:45:32;;;;;;;6.40;3.50;;;24.10;99.90;;;;;;5011622;28;20451;-78
2022/08/22 07:48:08;;;;;;;6.17;3.63;;;24.60;99.90;;;;;;5012515;28;20453;-78
2022/08/22 07:50:38;;;;;;;4.03;3.60;;;25.00;99.90;;;;;;5011863;28;20459;-78
2022/08/22 07:53:12;;;;;;;4.73;3.20;;;24.90;99.90;;;;;;5012066;28;20475;-78
2022/08/22 07:55:42;;;;;;;7.83;3.07;;;25.00;99.90;;;;;;5011444;28;20432;-78
2022/08/22 07:58:12;;;;;;;4.95;3.25;;;25.30;99.90;;;;;;5011781;28;20923;-78
2022/08/22 08:00:43;;;;;;;6.80;3.40;;;25.60;99.90;;;;;;5011528;28;20675;-78
2022/08/22 08:03:11;;;;;;;4.43;3.60;;;25.90;99.90;;;;;;5011797;28;20479;-78
2022/08/22 08:05:41;;;;;;;6.27;3.47;;;26.00;99.90;;;;;;5011577;28;20947;-78
2022/08/22 08:08:19;;;;;;;5.60;3.93;;;26.20;99.90;;;;;;5011735;28;20465;-79
2022/08/22 08:10:49;;;;;;;6.60;3.30;;;26.30;99.90;;;;;;5011665;28;20442;-78
2022/08/22 08:13:21;;;;;;;9.20;3.60;;;26.50;99.90;;;;;;5011913;28;20476;-78
2022/08/22 08:15:50;;;;;;;10.23;3.40;;;26.50;99.90;;;;;;5012190;28;20680;-78
2022/08/22 08:18:22;;;;;;;5.43;3.53;;;26.80;99.90;;;;;;5012753;28;20513;-78
2022/08/22 08:20:52;;;;;;;5.00;2.87;;;27.00;99.90;;;;;;5015423;28;20438;-78
2022/08/22 08:23:19;;;;;;;10.50;3.90;;;27.10;99.90;;;;;;5015352;28;20535;-78
2022/08/22 08:25:57;;;;;;;4.93;3.38;;;27.30;99.90;;;;;;5015228;28;20488;-78
2022/08/22 08:28:33;;;;;;;6.73;4.90;;;27.10;99.90;;;;;;5015578;28;20251;-78
2022/08/22 08:31:07;;;;;;;6.17;3.60;;;27.10;99.90;;;;;;5015024;28;20504;-78
2022/08/22 08:33:36;;;;;;;3.40;3.10;;;27.00;99.90;;;;;;5015208;28;20478;-78
2022/08/22 08:36:08;;;;;;;4.30;3.60;;;27.10;99.90;;;;;;5015163;28;20942;-78
2022/08/22 08:38:43;;;;;;;6.50;3.73;;;27.20;99.90;;;;;;5015283;28;20545;-77
2022/08/22 08:41:37;;;;;;;7.30;4.03;;;27.00;99.90;;;;;;5015123;28;20768;-78
2022/08/22 08:44:20;;;;;;;4.87;3.90;;;26.90;99.90;;;;;;5015178;28;20451;-78
2022/08/22 08:47:03;;;;;;;4.27;3.80;;;26.90;99.90;;;;;;5014672;28;20500;-78
2022/08/22 08:49:46;;;;;;;4.28;3.88;;;26.80;99.90;;;;;;5014605;28;20481;-78
2022/08/22 08:52:50;;;;;;;6.20;4.17;;;27.10;99.90;;;;;;5014392;28;20665;-78
2022/08/22 08:55:29;;;;;;;4.73;4.10;;;27.10;99.90;;;;;;5014408;28;20515;-78
2022/08/22 08:58:09;;;;;;;4.40;4.00;;;27.20;99.90;;;;;;5014567;28;20973;-78
2022/08/22 09:00:50;;;;;;;7.60;4.60;;;27.10;99.90;;;;;;5014875;28;20504;-78
2022/08/22 09:03:34;;;;;;;4.50;4.10;;;27.20;99.90;;;;;;5014599;28;20466;-78
2022/08/22 09:06:14;;;;;;;6.03;5.07;;;27.10;99.90;;;;;;5014530;28;20508;-78
2022/08/22 09:08:52;;;;;;;9.73;5.07;;;27.00;99.90;;;;;;5014169;28;20838;-77
2022/08/22 09:11:50;;;;;;;9.70;4.90;;;26.80;99.90;;;;;;5014165;28;20478;-78
2022/08/22 09:14:30;;;;;;;5.13;4.00;;;26.90;99.90;;;;;;5014629;28;20450;-78
2022/08/22 09:17:19;;;;;;;6.00;4.50;;;27.40;99.90;;;;;;5013539;28;20562;-78
2022/08/22 09:20:09;;;;;;;10.48;4.28;;;27.60;99.90;;;;;;5014344;28;20449;-78
2022/08/22 09:23:09;;;;;;;4.83;3.97;;;27.90;99.90;;;;;;5014082;28;20224;-78
2022/08/22 09:25:39;;;;;;;7.20;4.45;;;28.10;99.90;;;;;;5013997;28;20458;-78
2022/08/22 09:28:13;;;;;;;6.80;3.70;;;28.20;99.90;;;;;;5014284;28;20254;-78
2022/08/22 09:30:57;;;;;;;7.13;4.30;;;28.10;99.90;;;;;;5013399;28;20453;-79
2022/08/22 09:33:34;;;;;;;4.78;4.10;;;28.00;99.90;;;;;;5013763;28;20227;-78
2022/08/22 09:36:05;;;;;;;8.23;4.07;;;27.80;99.90;;;;;;5013948;28;20228;-78
2022/08/22 09:38:43;;;;;;;4.30;3.77;;;27.80;99.90;;;;;;5015342;28;20458;-79
2022/08/22 09:41:25;;;;;;;7.13;3.80;;;28.10;99.90;;;;;;5018293;28;20747;-80
2022/08/22 09:44:05;;;;;;;4.53;3.80;;;28.00;99.90;;;;;;5018824;28;20550;-79
2022/08/22 09:46:43;;;;;;;11.83;4.57;;;28.00;99.90;;;;;;5017474;28;20869;-80
2022/08/22 09:49:15;;;;;;;6.13;4.03;;;27.90;99.90;;;;;;5018876;28;20453;-80
2022/08/22 09:51:52;;;;;;;10.43;4.33;;;28.10;99.90;;;;;;5016192;28;20499;-79
2022/08/22 09:54:29;;;;;;;5.60;3.63;;;28.30;99.90;;;;;;5015889;28;20449;-79
2022/08/22 09:57:08;;;;;;;8.70;3.67;;;28.60;99.90;;;;;;5016088;28;20455;-80
2022/08/22 09:59:55;;;;;;;5.90;3.42;;;28.60;99.90;;;;;;5015660;28;20454;-79
2022/08/22 10:02:33;;;;;;;7.03;3.70;;;28.70;99.30;;;;;;5016566;28;20251;-81
2022/08/22 10:05:11;;;;;;;5.10;3.97;;;28.60;98.30;;;;;;5017667;28;20446;-80
2022/08/22 10:08:00;;;;;;;4.20;3.63;;;28.60;98.30;;;;;;5018567;28;20505;-81
2022/08/22 10:10:42;;;;;;;6.23;3.73;;;28.40;98.80;;;;;;5019372;28;20458;-80
2022/08/22 10:13:20;;;;;;;4.03;3.40;;;28.40;98.40;;;;;;5018156;28;21015;-80
2022/08/22 10:15:56;;;;;;;5.63;3.83;;;28.30;97.20;;;;;;5017879;28;20454;-81
2022/08/22 10:18:35;;;;;;;6.07;3.40;;;28.10;98.30;;;;;;5017127;28;20873;-80
2022/08/22 10:21:12;;;;;;;6.03;4.10;;;28.20;98.40;;;;;;5017640;28;20450;-79
2022/08/22 10:23:44;;;;;;;5.03;3.60;;;28.40;97.90;;;;;;5017676;28;20454;-80
2022/08/22 10:26:27;;;;;;;4.90;3.50;;;28.60;97.40;;;;;;5016792;28;20539;-79
2022/08/22 10:28:59;;;;;;;3.40;2.97;;;28.90;96.20;;;;;;5017282;28;20463;-80
2022/08/22 10:31:36;;;;;;;5.17;3.80;;;28.90;96.20;;;;;;5017539;28;20493;-80
2022/08/22 10:34:08;;;;;;;9.13;3.40;;;29.10;95.80;;;;;;5012419;28;20459;-79
2022/08/22 10:36:47;;;;;;;7.20;3.90;;;29.10;95.80;;;;;;5012502;28;20458;-79
2022/08/22 10:39:21;;;;;;;4.32;3.08;;;29.20;96.00;;;;;;5012719;28;20449;-79
2022/08/22 10:42:06;;;;;;;6.07;3.40;;;29.70;94.80;;;;;;5011652;28;20289;-79
2022/08/22 10:44:42;;;;;;;5.17;3.17;;;29.90;94.00;;;;;;5012607;28;20207;-79
2022/08/22 10:47:15;;;;;;;7.37;2.87;;;30.00;93.60;;;;;;5013198;28;21014;-80
2022/08/22 10:49:50;;;;;;;7.28;3.00;;;29.90;92.80;;;;;;5013139;28;20496;-82
2022/08/22 10:52:24;;;;;;;5.67;2.97;;;29.60;92.10;;;;;;5012743;28;20234;-79
2022/08/22 10:54:55;;;;;;;3.43;2.80;;;29.70;92.10;;;;;;5012881;28;20446;-79
2022/08/22 10:57:44;;;;;;;7.00;3.80;;;29.80;91.80;;;;;;5012665;28;20796;-80
2022/08/22 11:00:20;;;;;;;6.18;2.90;;;29.70;92.30;;;;;;5013046;28;20512;-79
2022/08/22 11:02:59;;;;;;;4.13;3.03;;;29.40;92.90;;;;;;5012717;28;20651;-79
2022/08/22 11:05:40;;;;;;;8.60;2.87;;;29.40;92.40;;;;;;5012276;28;20454;-79
2022/08/22 11:08:53;;;;;;;10.47;2.93;;;29.60;91.80;;;;;;5012735;28;20454;-79
2022/08/22 11:11:37;;;;;;;5.97;2.50;;;30.00;92.00;;;;;;5013231;28;20842;-79
2022/08/22 11:14:27;;;;;;;8.63;2.97;;;30.40;90.50;;;;;;5013610;28;20206;-79
2022/08/22 11:17:03;;;;;;;5.47;2.60;;;30.30;90.10;;;;;;5012456;28;20505;-78
2022/08/22 11:19:45;;;;;;;5.97;2.97;;;30.20;89.60;;;;;;5012395;28;20465;-79
2022/08/22 11:22:24;;;;;;;6.10;3.13;;;30.20;88.10;;;;;;5012287;28;20924;-79
2022/08/22 11:25:26;;;;;;;4.38;2.85;;;30.50;89.80;;;;;;5012122;28;20525;-80
2022/08/22 11:28:27;;;;;;;5.53;2.70;;;31.00;88.50;;;;;;5012236;28;20257;-80
2022/08/22 11:31:04;;;;;;;5.87;2.97;;;31.20;89.90;;;;;;5012776;28;20528;-79
2022/08/22 11:33:40;;;;;;;4.63;2.60;;;30.90;90.30;;;;;;5012446;28;20486;-80
2022/08/22 11:36:20;;;;;;;2.97;2.40;;;30.80;87.40;;;;;;5012356;28;20879;-80
2022/08/22 11:38:53;;;;;;;4.77;3.20;;;31.10;88.40;;;;;;5012061;28;20504;-80
2022/08/22 11:41:26;;;;;;;13.67;3.03;;;30.90;88.10;;;;;;5012251;28;20450;-79
2022/08/22 11:43:59;;;;;;;6.10;2.80;;;30.80;90.30;;;;;;5012503;28;20447;-80
2022/08/22 11:46:30;;;;;;;2.70;2.30;;;31.20;87.50;;;;;;5012366;28;20506;-79
2022/08/22 11:49:13;;;;;;;2.83;2.63;;;31.40;87.60;;;;;;5012399;28;20481;-80
2022/08/22 11:52:07;;;;;;;4.70;2.53;;;31.40;87.40;;;;;;5011594;28;20478;-80
2022/08/22 11:54:58;;;;;;;9.75;3.17;;;31.80;87.00;;;;;;5016978;28;20438;-79
2022/08/22 11:57:32;;;;;;;3.80;2.53;;;32.00;84.60;;;;;;5016268;28;20211;-79
2022/08/22 12:00:15;;;;;;;4.83;2.70;;;31.80;85.60;;;;;;5016825;28;20454;-80
2022/08/22 12:02:55;;;;;;;3.50;2.47;;;32.30;84.90;;;;;;5016133;28;20505;-80
2022/08/22 12:05:24;;;;;;;4.13;2.60;;;32.60;82.80;;;;;;5019527;28;20520;-80
2022/08/22 12:07:56;;;;;;;2.90;2.60;;;32.80;82.60;;;;;;5016131;28;20871;-80
2022/08/22 12:10:29;;;;;;;3.80;2.70;;;32.80;82.00;;;;;;5016899;28;20454;-81
2022/08/22 12:13:05;;;;;;;5.60;2.83;;;32.40;82.30;;;;;;5016981;28;20557;-80
2022/08/22 12:15:39;;;;;;;5.87;2.63;;;32.50;82.50;;;;;;5016417;28;20439;-79
2022/08/22 12:18:39;;;;;;;5.50;2.73;;;32.70;82.30;;;;;;5016056;28;20443;-80
2022/08/22 12:21:36;;;;;;;9.30;2.23;;;32.50;80.40;;;;;;5015695;28;20450;-80
2022/08/22 12:24:21;;;;;;;4.00;2.40;;;32.70;79.50;;;;;;5017492;28;20496;-80
2022/08/22 12:26:59;;;;;;;4.40;2.55;;;33.10;79.50;;;;;;5016207;28;20441;-80
2022/08/22 12:29:39;;;;;;;4.83;2.97;;;33.40;79.20;;;;;;5016363;28;20220;-79
2022/08/22 12:32:35;;;;;;;3.67;2.30;;;33.60;77.20;;;;;;5014653;28;20529;-79
2022/08/22 12:35:21;;;;;;;6.27;2.60;;;33.60;76.90;;;;;;5014831;28;21108;-77
2022/08/22 12:37:54;;;;;;;3.33;2.30;;;33.80;76.80;;;;;;5014874;28;20454;-78
2022/08/22 12:40:33;;;;;;;3.47;2.47;;;33.90;75.30;;;;;;5015781;28;20455;-79
2022/08/22 12:43:11;;;;;;;2.50;2.30;;;33.40;75.40;;;;;;5015180;28;20524;-80
2022/08/22 12:46:13;;;;;;;6.80;2.53;;;33.20;77.00;;;;;;5014886;28;21001;-78
2022/08/22 12:49:12;;;;;;;4.27;2.43;;;32.80;76.30;;;;;;5014687;28;20458;-78
2022/08/22 12:51:51;;;;;;;3.40;2.50;;;32.80;77.20;;;;;;5014348;28;20493;-77
2022/08/22 12:54:57;;;;;;;3.80;2.43;;;33.00;75.50;;;;;;5014590;28;21032;-81
2022/08/22 12:57:34;;;;;;;2.60;2.33;;;32.90;75.10;;;;;;5015035;28;20454;-79
2022/08/22 13:00:17;;;;;;;4.90;3.10;;;32.70;74.30;;;;;;5014428;28;20817;-79
2022/08/22 13:02:46;;;;;;;3.83;2.70;;;32.50;75.50;;;;;;5014455;28;20513;-79
2022/08/22 13:05:17;;;;;;;8.83;3.00;;;32.00;76.30;;;;;;5013418;28;20451;-78
2022/08/22 13:07:51;;;;;;;4.27;2.80;;;31.20;76.90;;;;;;5014287;28;20454;-78
2022/08/22 13:10:35;;;;;;;3.72;2.90;;;30.50;78.20;;;;;;5013948;28;20457;-79
2022/08/22 13:13:04;;;;;;;3.97;2.80;;;30.10;79.20;;;;;;5014399;28;20282;-78
2022/08/22 13:15:34;;;;;;;4.40;2.70;;;30.10;79.30;;;;;;5014086;28;20914;-79
2022/08/22 13:18:11;;;;;;;4.63;2.00;;;30.50;79.90;;;;;;5013992;28;20560;-78
2022/08/22 13:20:42;;;;;;;4.38;2.70;;;31.20;79.10;;;;;;5013928;28;20458;-78
2022/08/22 13:23:16;;;;;;;2.80;2.27;;;31.90;76.50;;;;;;5013763;28;20251;-78
2022/08/22 13:25:58;;;;;;;4.45;2.58;;;32.10;75.60;;;;;;5013601;28;20942;-79
2022/08/22 13:28:28;;;;;;;3.87;2.27;;;32.40;75.80;;;;;;5014055;28;20258;-79
2022/08/22 13:30:56;;;;;;;3.00;2.35;;;32.40;74.70;;;;;;5013929;28;20450;-79
2022/08/22 13:33:28;;;;;;;5.87;2.30;;;32.70;74.70;;;;;;5014577;28;20758;-79
2022/08/22 13:35:58;;;;;;;2.63;2.40;;;32.80;73.20;;;;;;5014637;28;20451;-79
2022/08/22 13:38:28;;;;;;;3.20;2.43;;;32.80;72.30;;;;;;5014569;28;20460;-79
2022/08/22 13:40:57;;;;;;;3.83;2.20;;;32.80;72.00;;;;;;5013942;28;20446;-79
2022/08/22 13:43:28;;;;;;;6.03;2.03;;;33.20;72.50;;;;;;5013419;28;20470;-78